Time;durP1;ratioP1;P1;durP2;ratioP2;P2;SDS_P1;SDS_P2;PMS_P1;PMS_P2;Temp;Humidity;BMP_temperature;BMP_pressure;BME280_temperature;BME280_humidity;BME280_pressure;Samples;Min_cycle;Max_cycle;Signal;HPM_P1;HPM_P2
2021/01/31 00:00:55;;;;;;;7.10;4.73;;;1.60;1.00;;;;;;5114821;28;20436;-60
2021/01/31 00:03:28;;;;;;;5.90;4.17;;;1.50;1.00;;;;;;5114743;28;20265;-59
2021/01/31 00:05:56;;;;;;;6.53;4.40;;;1.40;1.00;;;;;;5114695;28;20194;-61
2021/01/31 00:08:24;;;;;;;7.93;4.93;;;1.30;1.00;;;;;;5113426;28;20479;-59
2021/01/31 00:10:51;;;;;;;6.73;4.50;;;1.30;1.00;;;;;;5113680;28;20436;-59
2021/01/31 00:13:18;;;;;;;5.57;4.97;;;1.20;1.00;;;;;;5114578;28;20920;-59
2021/01/31 00:15:46;;;;;;;8.30;4.60;;;1.20;1.00;;;;;;5111405;28;20437;-59
2021/01/31 00:18:13;;;;;;;9.93;5.17;;;1.10;1.00;;;;;;5114205;28;20476;-60
2021/01/31 00:20:42;;;;;;;5.37;3.93;;;1.10;1.00;;;;;;5114217;28;20456;-59
2021/01/31 00:23:08;;;;;;;5.50;4.50;;;1.10;1.00;;;;;;5114285;28;20472;-58
2021/01/31 00:25:34;;;;;;;7.53;4.97;;;1.00;1.00;;;;;;5114081;28;20490;-58
2021/01/31 00:28:00;;;;;;;6.00;4.30;;;0.90;1.00;;;;;;5113790;28;20464;-59
2021/01/31 00:30:30;;;;;;;8.80;5.73;;;0.90;1.00;;;;;;5114309;28;20186;-59
2021/01/31 00:32:56;;;;;;;9.40;6.10;;;0.90;1.00;;;;;;5112831;28;20225;-59
2021/01/31 00:35:25;;;;;;;6.77;5.10;;;0.90;1.00;;;;;;5114072;28;20531;-60
2021/01/31 00:37:50;;;;;;;9.37;6.70;;;0.90;1.00;;;;;;5114180;28;20439;-60
2021/01/31 00:40:17;;;;;;;7.67;5.30;;;0.80;1.00;;;;;;5114131;28;20440;-59
2021/01/31 00:42:43;;;;;;;7.20;5.40;;;0.80;1.00;;;;;;5113538;27;20237;-60
2021/01/31 00:45:12;;;;;;;8.80;5.73;;;0.80;1.00;;;;;;5113650;28;20475;-58
2021/01/31 00:47:40;;;;;;;10.27;6.93;;;0.80;1.00;;;;;;5111677;28;20787;-58
2021/01/31 00:50:06;;;;;;;7.17;4.70;;;0.80;1.00;;;;;;5113451;28;20444;-60
2021/01/31 00:52:31;;;;;;;7.80;5.30;;;0.80;1.00;;;;;;5113404;28;20448;-61
2021/01/31 00:54:57;;;;;;;8.37;6.10;;;0.80;1.00;;;;;;5112772;28;21097;-59
2021/01/31 00:57:23;;;;;;;8.90;6.30;;;0.80;1.00;;;;;;5113409;28;20578;-60
2021/01/31 00:59:48;;;;;;;8.77;5.60;;;0.80;1.00;;;;;;5113231;28;20186;-59
2021/01/31 01:02:19;;;;;;;9.47;5.63;;;0.90;1.00;;;;;;5113413;28;20222;-60
2021/01/31 01:04:50;;;;;;;9.83;6.03;;;0.80;1.00;;;;;;5113727;28;20610;-59
2021/01/31 01:07:17;;;;;;;7.73;5.60;;;0.80;1.00;;;;;;5113366;28;20438;-59
2021/01/31 01:09:44;;;;;;;9.77;6.10;;;0.70;1.00;;;;;;5113229;28;20436;-59
2021/01/31 01:12:10;;;;;;;5.93;5.10;;;0.70;1.00;;;;;;5113091;28;20452;-59
2021/01/31 01:14:36;;;;;;;10.53;5.77;;;0.70;1.00;;;;;;5112904;28;20492;-60
2021/01/31 01:17:02;;;;;;;8.47;5.60;;;0.80;1.00;;;;;;5112595;27;20452;-58
2021/01/31 01:19:28;;;;;;;8.47;5.97;;;0.70;1.00;;;;;;5112808;28;20816;-59
2021/01/31 01:21:55;;;;;;;8.17;5.90;;;0.70;1.00;;;;;;5113163;28;21047;-60
2021/01/31 01:24:20;;;;;;;9.13;6.30;;;0.70;1.00;;;;;;5112956;28;20462;-59
2021/01/31 01:26:46;;;;;;;8.87;6.00;;;0.60;1.00;;;;;;5113005;28;20526;-59
2021/01/31 01:29:12;;;;;;;8.17;5.97;;;0.70;1.00;;;;;;5112811;28;20178;-59
2021/01/31 01:31:38;;;;;;;8.03;5.73;;;0.60;1.00;;;;;;5112868;28;20185;-59
2021/01/31 01:34:04;;;;;;;8.90;5.73;;;0.60;1.00;;;;;;5112519;28;20214;-60
2021/01/31 01:36:31;;;;;;;8.70;6.20;;;0.50;1.00;;;;;;5111544;28;20444;-60
2021/01/31 01:38:56;;;;;;;6.57;4.93;;;0.60;1.00;;;;;;5112946;28;20789;-60
2021/01/31 01:41:22;;;;;;;9.30;6.53;;;0.50;1.00;;;;;;5112878;28;20431;-59
2021/01/31 01:43:52;;;;;;;9.47;6.50;;;0.50;1.00;;;;;;5111424;28;20224;-58
2021/01/31 01:46:18;;;;;;;11.50;6.03;;;0.50;1.00;;;;;;5109932;28;20178;-58
2021/01/31 01:48:51;;;;;;;9.07;6.57;;;0.50;1.00;;;;;;5112098;28;20436;-60
2021/01/31 01:51:31;;;;;;;9.07;5.60;;;0.50;1.00;;;;;;5109732;28;20513;-59
2021/01/31 01:53:58;;;;;;;7.37;5.87;;;0.40;1.00;;;;;;5112561;28;20435;-59
2021/01/31 01:56:37;;;;;;;9.63;6.70;;;0.50;1.00;;;;;;5112515;28;20490;-60
2021/01/31 01:59:03;;;;;;;9.00;6.13;;;0.50;1.00;;;;;;5112440;28;20442;-60
2021/01/31 02:01:31;;;;;;;11.00;7.10;;;0.50;1.00;;;;;;5111268;28;20440;-60
2021/01/31 02:03:59;;;;;;;11.20;6.43;;;0.60;1.00;;;;;;5111806;28;20463;-60
2021/01/31 02:06:27;;;;;;;12.10;8.10;;;0.60;1.00;;;;;;5110719;28;20447;-59
2021/01/31 02:08:59;;;;;;;8.33;5.53;;;0.60;1.00;;;;;;5112391;28;20443;-58
2021/01/31 02:11:27;;;;;;;10.07;6.63;;;0.60;1.00;;;;;;5112224;28;20436;-59
2021/01/31 02:13:57;;;;;;;9.87;7.10;;;0.50;1.00;;;;;;5112157;28;20447;-59
2021/01/31 02:16:48;;;;;;;9.30;6.60;;;0.50;1.00;;;;;;5111925;28;20494;-59
2021/01/31 02:19:51;;;;;;;9.13;6.80;;;0.50;1.00;;;;;;5111761;28;20521;-59
2021/01/31 02:22:52;;;;;;;9.40;6.70;;;0.60;1.00;;;;;;5111513;28;20957;-59
2021/01/31 02:25:48;;;;;;;9.30;6.43;;;0.70;1.00;;;;;;5111465;28;20435;-58
2021/01/31 02:28:43;;;;;;;13.00;7.10;;;0.60;1.00;;;;;;5111845;28;20983;-59
2021/01/31 02:31:38;;;;;;;10.13;6.53;;;0.60;1.00;;;;;;5036389;28;20502;-59
2021/01/31 02:34:12;;;;;;;12.37;7.70;;;0.60;1.00;;;;;;5109780;28;20463;-59
2021/01/31 02:36:53;;;;;;;9.07;6.63;;;0.60;1.00;;;;;;5111875;28;21042;-58
2021/01/31 02:40:10;;;;;;;11.27;6.37;;;0.50;1.00;;;;;;5111652;28;21360;-58
2021/01/31 02:42:43;;;;;;;13.10;6.67;;;0.50;1.00;;;;;;5085270;28;20459;-58
2021/01/31 02:45:21;;;;;;;10.03;5.73;;;0.50;1.00;;;;;;5109537;28;20493;-58
2021/01/31 02:48:15;;;;;;;8.97;5.90;;;0.50;1.00;;;;;;5110710;28;20766;-59
2021/01/31 02:50:57;;;;;;;7.70;5.73;;;0.50;1.00;;;;;;5109792;28;20467;-59
2021/01/31 02:53:34;;;;;;;7.90;6.37;;;0.50;1.00;;;;;;5111159;28;20439;-58
2021/01/31 02:56:07;;;;;;;10.03;7.13;;;0.40;1.00;;;;;;5111630;28;20432;-59
2021/01/31 02:58:43;;;;;;;9.47;6.03;;;0.40;1.00;;;;;;5111646;28;20847;-58
2021/01/31 03:01:14;;;;;;;10.50;7.67;;;0.50;1.00;;;;;;5111678;28;21044;-59
2021/01/31 03:04:09;;;;;;;10.30;6.70;;;0.40;1.00;;;;;;5111319;28;20463;-58
2021/01/31 03:06:42;;;;;;;10.53;7.43;;;0.50;1.00;;;;;;5109875;28;20440;-59
2021/01/31 03:09:33;;;;;;;10.53;6.87;;;0.40;1.00;;;;;;5111361;28;20427;-59
2021/01/31 03:12:09;;;;;;;10.70;6.50;;;0.30;1.00;;;;;;5100835;28;20444;-59
2021/01/31 03:14:44;;;;;;;11.70;6.60;;;0.30;1.00;;;;;;5110249;28;20430;-58
2021/01/31 03:17:32;;;;;;;9.40;6.77;;;0.30;1.00;;;;;;5092298;28;20435;-58
2021/01/31 03:20:01;;;;;;;9.67;6.93;;;0.30;1.00;;;;;;5111562;28;20940;-59
2021/01/31 03:22:36;;;;;;;10.27;7.27;;;0.30;1.00;;;;;;5111202;28;20470;-58
2021/01/31 03:25:07;;;;;;;9.80;6.90;;;0.30;1.00;;;;;;5111362;28;20438;-59
2021/01/31 03:27:39;;;;;;;9.23;6.97;;;0.30;1.00;;;;;;5111735;28;20863;-59
2021/01/31 03:30:07;;;;;;;9.73;6.37;;;0.10;1.00;;;;;;5111449;28;20432;-58
2021/01/31 03:32:43;;;;;;;9.20;6.23;;;0.30;1.00;;;;;;5111071;28;20561;-58
2021/01/31 03:35:14;;;;;;;11.60;7.87;;;0.20;1.00;;;;;;5111096;28;20435;-58
2021/01/31 03:38:04;;;;;;;11.63;7.60;;;0.10;1.00;;;;;;5111241;27;20777;-59
2021/01/31 03:40:31;;;;;;;11.23;7.07;;;0.00;1.00;;;;;;5111209;28;20444;-58
2021/01/31 03:42:57;;;;;;;13.20;7.57;;;0.00;1.00;;;;;;5113907;28;20898;-59
2021/01/31 03:45:55;;;;;;;12.07;7.43;;;0.00;1.00;;;;;;5114807;28;20536;-58
2021/01/31 03:48:26;;;;;;;12.53;7.57;;;-0.10;1.00;;;;;;5076017;28;20197;-59
2021/01/31 03:50:52;;;;;;;14.70;8.77;;;-0.10;1.00;;;;;;5114972;28;20435;-59
2021/01/31 03:53:18;;;;;;;9.83;6.30;;;-0.20;1.00;;;;;;5114712;28;20584;-58
2021/01/31 03:55:44;;;;;;;11.97;7.77;;;-0.20;1.00;;;;;;5114371;28;20174;-59
2021/01/31 03:58:13;;;;;;;14.13;7.93;;;-0.20;1.00;;;;;;5114835;28;20196;-58
2021/01/31 04:00:53;;;;;;;11.23;8.17;;;-0.30;1.00;;;;;;5114622;28;20435;-58
2021/01/31 04:03:23;;;;;;;10.90;7.60;;;-0.30;1.00;;;;;;5114597;28;20554;-58
2021/01/31 04:06:02;;;;;;;15.87;8.90;;;-0.30;1.00;;;;;;5114495;28;20445;-59
2021/01/31 04:08:31;;;;;;;11.63;6.77;;;-0.40;1.00;;;;;;5113875;27;20435;-59
2021/01/31 04:10:56;;;;;;;12.70;7.87;;;-0.40;1.00;;;;;;5114192;28;20447;-58
2021/01/31 04:13:22;;;;;;;11.53;7.10;;;-0.40;1.00;;;;;;5114435;28;20432;-58
2021/01/31 04:16:00;;;;;;;12.27;8.67;;;-0.40;1.00;;;;;;5113982;28;20257;-58
2021/01/31 04:18:25;;;;;;;11.60;8.00;;;-0.40;1.00;;;;;;5114471;28;20826;-59
2021/01/31 04:20:52;;;;;;;11.37;7.53;;;-0.50;1.00;;;;;;5113956;28;20436;-59
2021/01/31 04:23:18;;;;;;;11.67;7.40;;;-0.60;1.00;;;;;;5113192;28;20255;-58
2021/01/31 04:25:45;;;;;;;10.10;8.50;;;-0.60;1.00;;;;;;5114050;28;20443;-58
2021/01/31 04:28:17;;;;;;;13.90;6.90;;;-0.60;1.00;;;;;;5113923;27;20427;-59
2021/01/31 04:30:45;;;;;;;12.63;9.07;;;-0.70;1.00;;;;;;5114060;28;20431;-58
2021/01/31 04:33:13;;;;;;;13.47;8.20;;;-0.80;1.00;;;;;;5113914;27;20530;-58
2021/01/31 04:35:38;;;;;;;10.57;7.30;;;-0.80;1.00;;;;;;5113805;28;20523;-58
2021/01/31 04:38:05;;;;;;;12.60;7.80;;;-0.80;1.00;;;;;;5113606;28;20474;-59
2021/01/31 04:40:32;;;;;;;11.43;7.67;;;-0.80;1.00;;;;;;5113780;28;20178;-58
2021/01/31 04:42:57;;;;;;;11.10;7.90;;;-0.90;1.00;;;;;;5113561;28;20532;-59
2021/01/31 04:45:24;;;;;;;13.63;7.73;;;-0.90;1.00;;;;;;5113424;28;20870;-58
2021/01/31 04:48:14;;;;;;;10.90;7.67;;;-1.00;1.00;;;;;;5113426;28;20177;-59
2021/01/31 04:50:47;;;;;;;11.27;7.50;;;-1.00;1.00;;;;;;5118868;27;20431;-59
2021/01/31 04:53:36;;;;;;;13.33;7.33;;;-0.90;1.00;;;;;;5134132;27;20435;-58
2021/01/31 04:56:23;;;;;;;11.00;7.47;;;-1.00;1.00;;;;;;5134125;27;20748;-59
2021/01/31 04:58:51;;;;;;;11.33;7.10;;;-1.10;1.00;;;;;;5133972;27;20431;-60
2021/01/31 05:01:29;;;;;;;11.80;7.77;;;-1.10;1.00;;;;;;5117592;27;20462;-59
2021/01/31 05:04:03;;;;;;;13.50;7.80;;;-1.10;1.00;;;;;;5113362;28;20459;-59
2021/01/31 05:06:43;;;;;;;12.53;7.77;;;-1.20;1.00;;;;;;5112850;28;20507;-59
2021/01/31 05:09:16;;;;;;;16.03;7.40;;;-1.10;1.00;;;;;;5113284;28;20443;-59
2021/01/31 05:11:54;;;;;;;12.80;8.10;;;-1.20;1.00;;;;;;5112660;28;20489;-58
2021/01/31 05:14:48;;;;;;;14.37;8.10;;;-1.30;1.00;;;;;;5113251;28;20522;-59
2021/01/31 05:17:16;;;;;;;12.20;6.90;;;-1.30;1.00;;;;;;5112877;28;20921;-59
2021/01/31 05:19:42;;;;;;;11.07;6.80;;;-1.30;1.00;;;;;;5113277;28;20450;-58
2021/01/31 05:22:11;;;;;;;14.50;9.10;;;-1.40;1.00;;;;;;5112845;28;20443;-59
2021/01/31 05:24:37;;;;;;;13.23;7.20;;;-1.30;1.00;;;;;;5111519;28;20222;-59
2021/01/31 05:27:04;;;;;;;9.97;6.77;;;-1.40;1.00;;;;;;5112760;28;20937;-59
2021/01/31 05:29:39;;;;;;;8.70;7.03;;;-1.30;1.00;;;;;;5112621;28;20836;-59
2021/01/31 05:32:09;;;;;;;12.80;7.57;;;-1.40;1.00;;;;;;5112159;28;20502;-59
2021/01/31 05:34:35;;;;;;;11.17;7.80;;;-1.40;1.00;;;;;;5112654;28;20859;-59
2021/01/31 05:37:03;;;;;;;10.60;6.80;;;-1.50;1.00;;;;;;5112858;27;20507;-59
2021/01/31 05:39:37;;;;;;;11.37;7.13;;;-1.50;1.00;;;;;;5112274;28;20255;-59
2021/01/31 05:42:19;;;;;;;11.33;7.70;;;-1.50;1.00;;;;;;5112206;28;20494;-58
2021/01/31 05:44:56;;;;;;;14.10;7.50;;;-1.50;1.00;;;;;;5112648;28;20451;-59
2021/01/31 05:47:24;;;;;;;11.40;7.67;;;-1.60;1.00;;;;;;5112244;28;20528;-59
2021/01/31 05:49:53;;;;;;;15.23;8.43;;;-1.60;1.00;;;;;;5111727;28;20446;-60
2021/01/31 05:52:18;;;;;;;14.60;7.70;;;-1.60;1.00;;;;;;5112443;28;20432;-59
2021/01/31 05:54:45;;;;;;;11.17;7.37;;;-1.70;1.00;;;;;;5118825;27;20444;-59
2021/01/31 05:57:27;;;;;;;15.37;9.07;;;-1.70;1.00;;;;;;5112411;28;20190;-58
2021/01/31 05:59:54;;;;;;;12.40;7.83;;;-1.70;1.00;;;;;;5112558;28;20431;-59
2021/01/31 06:02:31;;;;;;;11.50;8.20;;;-1.70;1.00;;;;;;5112015;28;20523;-59
2021/01/31 06:05:21;;;;;;;13.33;8.77;;;-1.70;1.00;;;;;;5111316;28;20445;-59
2021/01/31 06:08:05;;;;;;;11.67;7.70;;;-1.70;1.00;;;;;;5112254;28;20442;-58
2021/01/31 06:10:33;;;;;;;12.17;7.57;;;-1.80;1.00;;;;;;5111915;28;20440;-59
2021/01/31 06:13:12;;;;;;;13.70;8.70;;;-1.80;1.00;;;;;;5110973;28;20442;-58
2021/01/31 06:15:54;;;;;;;10.00;7.93;;;-1.80;1.00;;;;;;5110744;28;20989;-59
2021/01/31 06:18:25;;;;;;;12.97;9.40;;;-1.80;1.00;;;;;;5111044;28;20842;-59
2021/01/31 06:20:50;;;;;;;12.60;8.03;;;-1.80;1.00;;;;;;5111454;28;20935;-59
2021/01/31 06:23:25;;;;;;;13.07;8.37;;;-1.80;1.00;;;;;;5111701;28;20507;-59
2021/01/31 06:25:51;;;;;;;12.90;8.33;;;-1.80;1.00;;;;;;5111362;28;20184;-58
2021/01/31 06:28:28;;;;;;;11.97;8.33;;;-1.90;1.00;;;;;;5110238;28;20427;-59
2021/01/31 06:31:19;;;;;;;10.00;8.37;;;-1.90;1.00;;;;;;5111162;28;20182;-59
2021/01/31 06:33:45;;;;;;;12.07;7.23;;;-1.90;1.00;;;;;;5109663;28;20459;-59
2021/01/31 06:36:20;;;;;;;13.57;9.00;;;-1.90;1.00;;;;;;5111557;28;20440;-59
2021/01/31 06:38:57;;;;;;;15.20;8.73;;;-1.90;1.00;;;;;;5109716;28;20496;-59
2021/01/31 06:41:31;;;;;;;12.80;8.00;;;-2.00;1.00;;;;;;5110494;28;20458;-60
2021/01/31 06:44:08;;;;;;;15.90;9.17;;;-2.00;1.00;;;;;;5110789;28;20460;-59
2021/01/31 06:46:49;;;;;;;10.03;7.53;;;-2.00;1.00;;;;;;5111428;28;20447;-59
2021/01/31 06:49:34;;;;;;;14.43;8.90;;;-2.00;1.00;;;;;;5110951;28;20727;-58
2021/01/31 06:52:05;;;;;;;12.37;7.30;;;-2.00;1.00;;;;;;5111345;28;20435;-60
2021/01/31 06:54:55;;;;;;;13.20;7.57;;;-2.00;1.00;;;;;;5111442;28;20944;-58
2021/01/31 06:57:30;;;;;;;11.67;8.30;;;-2.00;1.00;;;;;;5109428;28;20432;-59
2021/01/31 07:00:01;;;;;;;10.07;6.80;;;-2.00;1.00;;;;;;5110799;28;20430;-58
2021/01/31 07:02:45;;;;;;;14.83;7.80;;;-2.00;1.00;;;;;;5111174;28;20952;-59
2021/01/31 07:05:37;;;;;;;14.70;8.70;;;-2.10;1.00;;;;;;5110850;28;20523;-60
2021/01/31 07:08:19;;;;;;;16.03;9.00;;;-2.10;1.00;;;;;;5109423;28;20432;-58
2021/01/31 07:10:50;;;;;;;13.50;7.63;;;-2.10;1.00;;;;;;5111173;28;20503;-59
2021/01/31 07:13:48;;;;;;;12.33;7.90;;;-2.10;1.00;;;;;;5110888;28;20440;-59
2021/01/31 07:16:20;;;;;;;12.13;7.60;;;-2.10;1.00;;;;;;5110665;28;21041;-59
2021/01/31 07:19:16;;;;;;;12.33;8.10;;;-2.10;1.00;;;;;;5114555;28;20435;-58
2021/01/31 07:22:05;;;;;;;11.27;8.00;;;-2.10;1.00;;;;;;5113712;28;20435;-58
2021/01/31 07:24:55;;;;;;;10.40;7.20;;;-2.10;1.00;;;;;;5100242;28;21021;-59
2021/01/31 07:27:23;;;;;;;14.63;9.13;;;-2.10;1.00;;;;;;5114295;28;20431;-60
2021/01/31 07:30:15;;;;;;;13.77;8.30;;;-2.10;1.00;;;;;;5113268;28;20438;-58
2021/01/31 07:33:08;;;;;;;10.70;7.43;;;-2.00;1.00;;;;;;5114095;28;20468;-58
2021/01/31 07:35:42;;;;;;;12.77;8.60;;;-2.00;1.00;;;;;;5117847;27;20956;-59
2021/01/31 07:38:21;;;;;;;14.87;8.47;;;-2.00;1.00;;;;;;5116838;27;20901;-58
2021/01/31 07:40:52;;;;;;;13.67;8.50;;;-2.00;1.00;;;;;;5113232;27;20979;-58
2021/01/31 07:43:19;;;;;;;16.20;8.73;;;-2.00;1.00;;;;;;5113085;28;20471;-59
2021/01/31 07:45:45;;;;;;;13.03;8.53;;;-2.00;1.00;;;;;;5113831;28;20792;-60
2021/01/31 07:48:29;;;;;;;15.57;8.10;;;-1.90;1.00;;;;;;5113420;28;20439;-59
2021/01/31 07:50:55;;;;;;;10.10;7.30;;;-1.80;1.00;;;;;;5114403;28;20432;-59
2021/01/31 07:53:27;;;;;;;12.67;7.20;;;-1.70;1.00;;;;;;5114229;28;20809;-58
2021/01/31 07:55:54;;;;;;;11.57;7.63;;;-1.70;1.00;;;;;;5114414;28;20442;-59
2021/01/31 07:58:25;;;;;;;11.83;8.60;;;-1.60;1.00;;;;;;5113354;28;21277;-59
2021/01/31 08:00:54;;;;;;;12.93;7.17;;;-1.50;1.00;;;;;;5113463;28;20436;-59
2021/01/31 08:03:35;;;;;;;11.00;6.87;;;-1.40;1.00;;;;;;5113553;28;20800;-59
2021/01/31 08:06:17;;;;;;;12.47;8.00;;;-1.30;1.00;;;;;;5113902;27;20438;-58
2021/01/31 08:08:51;;;;;;;12.43;8.13;;;-1.30;1.00;;;;;;5111296;27;20435;-58
2021/01/31 08:11:37;;;;;;;12.07;8.43;;;-1.30;1.00;;;;;;5113706;28;20435;-59
2021/01/31 08:14:03;;;;;;;11.63;8.27;;;-1.10;1.00;;;;;;5113322;28;20941;-59
2021/01/31 08:16:47;;;;;;;10.93;6.50;;;-1.10;1.00;;;;;;5113398;28;20450;-58
2021/01/31 08:19:19;;;;;;;12.10;8.13;;;-1.10;1.00;;;;;;5112517;28;20518;-59
2021/01/31 08:22:08;;;;;;;14.83;7.77;;;-1.00;1.00;;;;;;5111159;27;20435;-58
2021/01/31 08:25:00;;;;;;;10.17;6.50;;;-1.00;1.00;;;;;;5113218;28;20856;-59
2021/01/31 08:27:38;;;;;;;11.73;7.10;;;-1.00;1.00;;;;;;5113124;28;20731;-59
2021/01/31 08:30:35;;;;;;;11.93;7.30;;;-1.10;1.00;;;;;;5110076;27;20528;-59
2021/01/31 08:33:00;;;;;;;10.80;6.90;;;-1.10;1.00;;;;;;5109497;28;20490;-59
2021/01/31 08:35:30;;;;;;;9.33;6.87;;;-1.10;1.00;;;;;;5107186;28;20894;-59
2021/01/31 08:38:21;;;;;;;9.43;6.70;;;-1.20;1.00;;;;;;5111384;28;20190;-59
2021/01/31 08:41:01;;;;;;;8.50;6.10;;;-1.00;1.00;;;;;;5113893;28;20968;-59
2021/01/31 08:43:36;;;;;;;11.30;7.63;;;-1.10;1.00;;;;;;5113231;28;20455;-60
2021/01/31 08:46:13;;;;;;;12.30;7.60;;;-1.00;1.00;;;;;;5113326;28;20435;-60
2021/01/31 08:48:39;;;;;;;11.73;6.50;;;-0.90;1.00;;;;;;5113620;28;20427;-59
2021/01/31 08:51:19;;;;;;;10.93;7.67;;;-0.80;1.00;;;;;;5113645;28;20924;-59
2021/01/31 08:53:45;;;;;;;9.53;5.67;;;-0.80;1.00;;;;;;5113186;27;20443;-60
2021/01/31 08:56:32;;;;;;;10.43;6.77;;;-0.70;1.00;;;;;;5113421;28;20449;-59
2021/01/31 08:58:58;;;;;;;9.60;7.33;;;-0.60;1.00;;;;;;5111555;28;20190;-60
2021/01/31 09:01:24;;;;;;;16.13;8.20;;;-0.50;1.00;;;;;;5112108;28;20442;-62
2021/01/31 09:03:50;;;;;;;13.03;7.33;;;-0.40;1.00;;;;;;5113400;28;20205;-60
2021/01/31 09:06:16;;;;;;;12.00;7.57;;;-0.40;1.00;;;;;;5113335;28;20960;-59
2021/01/31 09:08:44;;;;;;;10.17;6.63;;;-0.30;1.00;;;;;;5113075;27;20186;-59
2021/01/31 09:11:14;;;;;;;11.37;7.53;;;-0.20;1.00;;;;;;5112780;28;20527;-59
2021/01/31 09:13:40;;;;;;;9.90;7.83;;;-0.10;1.00;;;;;;5111607;28;20440;-60
2021/01/31 09:16:11;;;;;;;13.57;7.83;;;-0.10;1.00;;;;;;5112550;28;21010;-59
2021/01/31 09:18:36;;;;;;;9.73;7.03;;;0.10;1.00;;;;;;5112973;28;20269;-59
2021/01/31 09:21:26;;;;;;;9.57;6.53;;;0.00;1.00;;;;;;5112669;28;20535;-60
2021/01/31 09:23:58;;;;;;;10.57;8.00;;;0.10;1.00;;;;;;5112360;28;20224;-59
2021/01/31 09:26:26;;;;;;;9.97;7.60;;;0.30;1.00;;;;;;5113060;28;20444;-59
2021/01/31 09:28:53;;;;;;;11.47;7.60;;;0.30;1.00;;;;;;5112280;28;20425;-58
2021/01/31 09:31:19;;;;;;;10.40;7.83;;;0.40;1.00;;;;;;5112349;28;20534;-59
2021/01/31 09:33:45;;;;;;;10.67;7.43;;;0.50;1.00;;;;;;5111063;28;20467;-59
2021/01/31 09:36:32;;;;;;;10.50;7.60;;;0.60;1.00;;;;;;5115359;27;20837;-60
2021/01/31 09:39:00;;;;;;;10.70;7.60;;;0.70;1.00;;;;;;5132976;27;20180;-59
2021/01/31 09:41:28;;;;;;;11.13;8.50;;;0.80;1.00;;;;;;5120825;27;20518;-59
2021/01/31 09:43:59;;;;;;;10.33;7.40;;;0.90;1.00;;;;;;5112474;28;20983;-58
2021/01/31 09:46:25;;;;;;;11.07;8.10;;;1.00;1.00;;;;;;5111984;28;20928;-59
2021/01/31 09:49:08;;;;;;;12.00;7.10;;;1.10;1.00;;;;;;5112300;28;20436;-59
2021/01/31 09:51:35;;;;;;;10.00;6.60;;;1.20;1.00;;;;;;5111937;28;20440;-58
2021/01/31 09:54:31;;;;;;;10.27;7.60;;;1.30;1.00;;;;;;5112365;28;20522;-59
2021/01/31 09:57:00;;;;;;;10.97;7.97;;;1.30;1.00;;;;;;5111165;28;20445;-59
2021/01/31 09:59:30;;;;;;;10.97;7.43;;;1.40;1.00;;;;;;5112401;28;20437;-58
2021/01/31 10:02:09;;;;;;;9.90;7.90;;;1.50;1.00;;;;;;5112671;28;20435;-58
2021/01/31 10:04:36;;;;;;;17.80;10.20;;;1.70;1.00;;;;;;5112525;28;20516;-58
2021/01/31 10:07:09;;;;;;;13.33;8.20;;;1.80;1.00;;;;;;5113001;27;20519;-58
2021/01/31 10:09:39;;;;;;;12.27;8.30;;;1.70;1.00;;;;;;5115310;27;20428;-60
2021/01/31 10:12:22;;;;;;;12.47;8.30;;;1.60;1.00;;;;;;5110136;28;20443;-62
2021/01/31 10:14:59;;;;;;;11.80;7.73;;;1.70;1.00;;;;;;5111974;28;20437;-60
2021/01/31 10:17:28;;;;;;;12.73;9.20;;;1.80;1.00;;;;;;5110524;28;20781;-60
2021/01/31 10:20:28;;;;;;;13.50;9.53;;;1.80;1.00;;;;;;5111537;28;20508;-59
2021/01/31 10:23:09;;;;;;;11.87;8.00;;;1.80;1.00;;;;;;5108009;28;20856;-60
2021/01/31 10:25:37;;;;;;;11.00;8.33;;;2.00;1.00;;;;;;5111433;28;20993;-61
2021/01/31 10:28:04;;;;;;;13.47;8.83;;;2.00;1.00;;;;;;5109414;28;20432;-59
2021/01/31 10:30:44;;;;;;;14.07;10.17;;;2.00;1.00;;;;;;5111797;28;20485;-59
2021/01/31 10:33:41;;;;;;;12.27;8.07;;;2.20;1.00;;;;;;5111687;28;20475;-60
2021/01/31 10:36:25;;;;;;;12.37;8.40;;;2.30;1.00;;;;;;5111633;28;20436;-58
2021/01/31 10:38:53;;;;;;;11.53;7.70;;;2.50;1.00;;;;;;5110020;28;20472;-60
2021/01/31 10:41:18;;;;;;;13.27;8.70;;;2.50;1.00;;;;;;5111500;28;20857;-60
2021/01/31 10:43:52;;;;;;;10.93;8.37;;;2.60;1.00;;;;;;5110335;28;20571;-59
2021/01/31 10:46:17;;;;;;;11.67;8.73;;;2.60;1.00;;;;;;5111361;28;20274;-59
2021/01/31 10:48:43;;;;;;;11.57;7.83;;;2.70;1.00;;;;;;5111663;28;20531;-60
2021/01/31 10:51:08;;;;;;;9.70;8.10;;;2.80;1.00;;;;;;5113398;27;20226;-60
2021/01/31 10:53:36;;;;;;;10.70;8.00;;;2.90;1.00;;;;;;5116527;27;20185;-61
2021/01/31 10:56:01;;;;;;;11.97;8.20;;;3.10;1.00;;;;;;5117745;27;20179;-60
2021/01/31 10:58:27;;;;;;;10.73;7.50;;;3.20;1.00;;;;;;5118344;27;20896;-62
2021/01/31 11:00:52;;;;;;;10.27;7.70;;;3.20;1.00;;;;;;5117809;27;20617;-60
2021/01/31 11:03:18;;;;;;;9.47;7.43;;;3.10;1.00;;;;;;5130997;27;20223;-62
2021/01/31 11:05:43;;;;;;;12.37;7.90;;;3.20;1.00;;;;;;5118565;27;20202;-60
2021/01/31 11:08:09;;;;;;;12.77;8.93;;;3.20;1.00;;;;;;5129934;27;20235;-60
2021/01/31 11:10:34;;;;;;;12.90;7.60;;;3.30;1.00;;;;;;5139104;27;20192;-60
2021/01/31 11:13:01;;;;;;;10.80;7.73;;;3.40;1.00;;;;;;5139044;27;20176;-61
2021/01/31 11:15:26;;;;;;;9.27;7.30;;;3.40;1.00;;;;;;5137261;27;20191;-61
2021/01/31 11:17:52;;;;;;;10.97;8.03;;;3.40;1.00;;;;;;5114757;27;20443;-60
2021/01/31 11:20:18;;;;;;;12.37;7.97;;;3.50;1.00;;;;;;5129489;27;20309;-60
2021/01/31 11:22:43;;;;;;;12.03;7.80;;;3.50;1.00;;;;;;5118165;27;20540;-60
2021/01/31 11:25:09;;;;;;;14.67;8.13;;;3.40;1.00;;;;;;5132686;27;20265;-60
2021/01/31 11:27:35;;;;;;;9.70;7.60;;;3.60;1.00;;;;;;5132978;27;20195;-61
2021/01/31 11:30:01;;;;;;;13.93;9.57;;;3.50;1.00;;;;;;5117858;27;20443;-59
2021/01/31 11:32:26;;;;;;;13.47;9.10;;;3.50;1.00;;;;;;5117509;27;20579;-60
2021/01/31 11:34:52;;;;;;;12.50;8.37;;;3.50;1.00;;;;;;5118348;27;20183;-61
2021/01/31 11:37:17;;;;;;;12.33;8.57;;;3.50;1.00;;;;;;5118404;27;20182;-59
2021/01/31 11:39:43;;;;;;;14.30;8.17;;;3.60;1.00;;;;;;5117078;27;20170;-60
2021/01/31 11:42:09;;;;;;;11.17;8.20;;;3.70;1.00;;;;;;5118224;27;20179;-59
2021/01/31 11:44:34;;;;;;;18.67;8.70;;;3.80;1.00;;;;;;5117457;27;20209;-61
2021/01/31 11:47:00;;;;;;;13.83;9.43;;;3.80;1.00;;;;;;5116155;27;20637;-59
2021/01/31 11:49:26;;;;;;;11.27;9.43;;;3.90;1.00;;;;;;5117378;27;20223;-60
2021/01/31 11:51:51;;;;;;;11.97;9.07;;;3.80;1.00;;;;;;5117689;27;20256;-60
2021/01/31 11:54:17;;;;;;;13.70;10.53;;;4.10;1.00;;;;;;5117774;27;20597;-59
2021/01/31 11:56:43;;;;;;;13.10;9.60;;;4.20;1.00;;;;;;5117781;27;20543;-60
2021/01/31 11:59:09;;;;;;;11.60;8.03;;;4.20;1.00;;;;;;5117195;27;20492;-59
2021/01/31 12:01:38;;;;;;;13.87;8.70;;;4.10;1.00;;;;;;5117326;27;20590;-60
2021/01/31 12:04:04;;;;;;;10.80;8.50;;;4.10;1.00;;;;;;5115525;27;20468;-59
2021/01/31 12:06:29;;;;;;;12.10;8.07;;;4.10;1.00;;;;;;5115195;28;20442;-59
2021/01/31 12:08:55;;;;;;;13.03;8.97;;;4.20;1.00;;;;;;5114954;28;20440;-59
2021/01/31 12:11:20;;;;;;;10.00;8.27;;;4.30;1.00;;;;;;5114744;28;20174;-59
2021/01/31 12:13:46;;;;;;;13.27;9.07;;;4.50;1.00;;;;;;5114576;28;20266;-60
2021/01/31 12:16:11;;;;;;;12.67;9.07;;;4.80;1.00;;;;;;5114080;27;20183;-60
2021/01/31 12:18:37;;;;;;;11.90;8.80;;;4.60;1.00;;;;;;5114245;28;20248;-59
2021/01/31 12:21:02;;;;;;;11.33;9.10;;;4.40;1.00;;;;;;5114567;28;20170;-60
2021/01/31 12:23:28;;;;;;;11.27;8.17;;;4.30;1.00;;;;;;5114103;28;20208;-60
2021/01/31 12:25:54;;;;;;;11.03;8.27;;;4.30;1.00;;;;;;5114426;28;20174;-61
2021/01/31 12:28:20;;;;;;;11.63;8.10;;;4.30;1.00;;;;;;5114255;28;20224;-60
2021/01/31 12:30:45;;;;;;;10.50;7.53;;;4.40;1.00;;;;;;5112897;28;20174;-59
2021/01/31 12:33:11;;;;;;;11.80;8.17;;;4.40;1.00;;;;;;5114209;28;20867;-59
2021/01/31 12:35:37;;;;;;;12.40;7.93;;;4.40;1.00;;;;;;5112726;28;20184;-59
2021/01/31 12:38:03;;;;;;;13.20;8.93;;;4.30;1.00;;;;;;5114021;28;20182;-59
2021/01/31 12:40:31;;;;;;;12.67;8.40;;;4.30;1.00;;;;;;5113915;28;20192;-59
2021/01/31 12:42:56;;;;;;;11.50;8.90;;;4.30;1.00;;;;;;5113710;28;20459;-59
2021/01/31 12:45:22;;;;;;;9.40;7.13;;;4.50;1.00;;;;;;5113920;28;20431;-60
2021/01/31 12:47:49;;;;;;;12.20;8.57;;;4.50;1.00;;;;;;5112073;28;20536;-60
2021/01/31 12:50:16;;;;;;;13.83;9.00;;;4.50;1.00;;;;;;5129630;27;20455;-60
2021/01/31 12:52:42;;;;;;;13.73;9.27;;;4.50;1.00;;;;;;5133982;27;20433;-60
2021/01/31 12:55:10;;;;;;;14.77;10.77;;;4.50;1.00;;;;;;5132923;27;20431;-59
2021/01/31 12:57:35;;;;;;;10.73;8.60;;;4.60;1.00;;;;;;5134285;27;20438;-59
2021/01/31 13:00:03;;;;;;;11.80;8.40;;;4.40;1.00;;;;;;5134218;27;20439;-59
2021/01/31 13:02:29;;;;;;;10.50;8.70;;;4.30;1.00;;;;;;5134366;27;20195;-59
2021/01/31 13:04:54;;;;;;;12.50;8.03;;;4.50;1.00;;;;;;5129039;27;20444;-59
2021/01/31 13:07:20;;;;;;;9.47;7.67;;;4.50;1.00;;;;;;5113582;28;20190;-60
2021/01/31 13:09:46;;;;;;;12.70;8.90;;;4.50;1.00;;;;;;5113452;28;20581;-59
2021/01/31 13:12:11;;;;;;;12.57;8.20;;;4.60;1.00;;;;;;5113603;28;20186;-59
2021/01/31 13:14:37;;;;;;;10.07;6.97;;;4.60;1.00;;;;;;5112851;28;20197;-58
2021/01/31 13:17:04;;;;;;;12.73;8.50;;;4.50;1.00;;;;;;5113201;28;20263;-59
2021/01/31 13:19:29;;;;;;;10.60;8.73;;;4.60;1.00;;;;;;5113742;28;20466;-60
2021/01/31 13:21:55;;;;;;;9.77;7.83;;;4.50;1.00;;;;;;5112834;28;20435;-60